createdAt,value
2023-04-20T00:01:12.677Z,101021.15
2023-04-20T00:03:39.839Z,101021.00
2023-04-20T00:06:08.079Z,101043.40
2023-04-20T00:08:35.436Z,101044.58
2023-04-20T00:11:02.364Z,101007.36
2023-04-20T00:13:29.262Z,100977.60
2023-04-20T00:15:56.303Z,100971.66
2023-04-20T00:18:23.172Z,101001.48
2023-04-20T00:20:50.102Z,101024.73
2023-04-20T00:23:17.093Z,101027.01
2023-04-20T00:25:44.425Z,100997.68
2023-04-20T00:28:11.238Z,100968.61
2023-04-20T00:30:38.204Z,100953.36
2023-04-20T00:33:05.171Z,100916.41
2023-04-20T00:35:32.222Z,100900.95
2023-04-20T00:37:59.194Z,100904.39
2023-04-20T00:40:26.185Z,100899.77
2023-04-20T00:42:53.155Z,100907.02
2023-04-20T00:45:22.328Z,100903.53
2023-04-20T00:47:49.426Z,100888.34
2023-04-20T00:50:16.416Z,100881.35
2023-04-20T00:52:43.593Z,100862.72
2023-04-20T00:55:11.392Z,100865.69
2023-04-20T00:57:38.783Z,100871.93
2023-04-20T01:00:08.529Z,100881.23
2023-04-20T01:02:35.699Z,100889.49
2023-04-20T01:05:04.205Z,100889.07
2023-04-20T01:07:31.257Z,100886.90
2023-04-20T01:09:58.246Z,100897.86
2023-04-20T01:12:25.803Z,100897.17
2023-04-20T01:14:52.722Z,100883.41
2023-04-20T01:17:21.041Z,100857.64
2023-04-20T01:19:49.228Z,100860.27
2023-04-20T01:22:21.359Z,100896.02
2023-04-20T01:24:48.358Z,100923.17
2023-04-20T01:27:17.223Z,100934.61
2023-04-20T01:29:44.945Z,100917.68
2023-04-20T01:32:12.550Z,100906.98
2023-04-20T01:34:39.627Z,100900.26
2023-04-20T01:37:08.432Z,100905.83
2023-04-20T01:39:37.229Z,100922.82
2023-04-20T01:42:05.045Z,100919.33
2023-04-20T01:44:32.254Z,100911.85
2023-04-20T01:47:00.038Z,100907.88
2023-04-20T01:49:27.134Z,100900.25
2023-04-20T01:51:54.305Z,100899.62
2023-04-20T01:54:21.880Z,100902.80
2023-04-20T01:56:48.805Z,100908.57
2023-04-20T01:59:16.411Z,100899.29
2023-04-20T02:01:43.523Z,100901.14
2023-04-20T02:04:10.450Z,100906.48
2023-04-20T02:06:40.187Z,100918.83
2023-04-20T02:09:09.682Z,100919.23
2023-04-20T02:11:36.669Z,100923.74
2023-04-20T02:14:06.044Z,100927.55
2023-04-20T02:16:33.129Z,100916.64
2023-04-20T02:19:00.319Z,100904.42
2023-04-20T02:21:28.161Z,100897.38
2023-04-20T02:23:55.098Z,100900.98
2023-04-20T02:26:22.267Z,100920.62
2023-04-20T02:28:49.166Z,100927.58
2023-04-20T02:31:16.101Z,100912.58
2023-04-20T02:33:45.243Z,100899.73
2023-04-20T02:36:12.214Z,100891.52
2023-04-20T02:38:40.471Z,100879.30
2023-04-20T02:41:07.699Z,100875.95
2023-04-20T02:43:36.389Z,100869.77
2023-04-20T02:46:04.063Z,100860.45
2023-04-20T02:48:31.125Z,100850.59
2023-04-20T02:50:59.006Z,100844.08
2023-04-20T02:53:29.017Z,100832.40
2023-04-20T02:56:11.640Z,100818.04
2023-04-20T02:58:48.878Z,100802.65
2023-04-20T03:01:48.683Z,100779.55
2023-04-20T03:04:19.521Z,100740.86
2023-04-20T03:06:55.060Z,100711.92
2023-04-20T03:09:26.381Z,100672.16
2023-04-20T03:11:59.110Z,100637.81
2023-04-20T03:14:51.925Z,100630.04
2023-04-20T03:17:21.782Z,100640.04
2023-04-20T03:19:48.970Z,100680.52
2023-04-20T03:22:16.160Z,100710.90
2023-04-20T03:24:43.441Z,100724.61
2023-04-20T03:27:19.997Z,100752.04
2023-04-20T03:29:58.488Z,100778.29
2023-04-20T03:32:25.643Z,100783.69
2023-04-20T03:34:52.745Z,100782.30
2023-04-20T03:37:20.539Z,100780.52
2023-04-20T03:39:47.553Z,100772.52
2023-04-20T03:42:14.450Z,100752.88
2023-04-20T03:44:41.760Z,100736.36
2023-04-20T03:47:10.345Z,100727.80
2023-04-20T03:49:37.473Z,100724.30
2023-04-20T03:52:05.180Z,100721.86
2023-04-20T03:54:32.300Z,100730.01
2023-04-20T03:57:00.700Z,100720.11
2023-04-20T03:59:28.219Z,100717.79
2023-04-20T04:01:55.226Z,100716.52
2023-04-20T04:04:22.878Z,100702.76
2023-04-20T04:06:50.544Z,100686.77
2023-04-20T04:09:17.741Z,100666.98
2023-04-20T04:11:45.876Z,100661.48
2023-04-20T04:14:12.870Z,100672.53
2023-04-20T04:16:40.084Z,100698.31
2023-04-20T04:19:06.968Z,100704.52
2023-04-20T04:21:34.786Z,100716.46
2023-04-20T04:24:03.715Z,100731.86
2023-04-20T04:26:42.751Z,100742.71
2023-04-20T04:29:10.639Z,100758.23
2023-04-20T04:31:37.807Z,100772.83
2023-04-20T04:34:11.264Z,100778.18
2023-04-20T04:36:44.940Z,100779.94
2023-04-20T04:39:14.083Z,100776.64
2023-04-20T04:41:44.065Z,100758.23
2023-04-20T04:44:21.389Z,100752.08
2023-04-20T04:46:48.785Z,100743.82
2023-04-20T04:49:16.308Z,100740.64
2023-04-20T04:51:43.639Z,100745.20
2023-04-20T04:54:11.257Z,100746.10
2023-04-20T04:56:38.256Z,100746.75
2023-04-20T04:59:05.211Z,100747.21
2023-04-20T05:01:32.146Z,100749.91
2023-04-20T05:03:59.300Z,100743.56
2023-04-20T05:06:26.487Z,100728.95
2023-04-20T05:08:53.408Z,100728.52
2023-04-20T05:11:20.340Z,100725.46
2023-04-20T05:13:48.587Z,100734.45
2023-04-20T05:16:15.652Z,100748.33
2023-04-20T05:18:42.505Z,100763.73
2023-04-20T05:21:09.385Z,100769.77
2023-04-20T05:23:36.467Z,100773.78
2023-04-20T05:26:03.430Z,100791.09
2023-04-20T05:28:30.445Z,100807.04
2023-04-20T05:30:57.358Z,100817.15
2023-04-20T05:33:25.407Z,100821.73
2023-04-20T05:35:57.413Z,100820.95
2023-04-20T05:38:25.618Z,100816.39
2023-04-20T05:40:52.835Z,100812.95
2023-04-20T05:43:19.803Z,100815.86
2023-04-20T05:45:46.979Z,100817.25
2023-04-20T05:48:13.984Z,100820.31
2023-04-20T05:50:40.810Z,100823.23
2023-04-20T05:53:07.705Z,100818.09
2023-04-20T05:55:34.634Z,100805.49
2023-04-20T05:58:01.875Z,100796.59
2023-04-20T06:00:29.212Z,100828.40
2023-04-20T06:02:56.351Z,100858.31
2023-04-20T06:05:23.510Z,100876.25
2023-04-20T06:07:50.526Z,100877.09
2023-04-20T06:10:17.456Z,100866.65
2023-04-20T06:12:44.437Z,100847.02
2023-04-20T06:15:11.593Z,100831.15
2023-04-20T06:17:41.180Z,100825.28
2023-04-20T06:20:10.593Z,100828.99
2023-04-20T06:22:42.416Z,100832.58
2023-04-20T06:25:10.763Z,100836.67
2023-04-20T06:27:37.858Z,100841.39
2023-04-20T06:30:06.351Z,100843.70
2023-04-20T06:32:33.501Z,100845.58
2023-04-20T06:35:00.620Z,100841.86
2023-04-20T06:37:28.208Z,100841.55
2023-04-20T06:39:55.193Z,100841.91
2023-04-20T06:42:22.911Z,100845.37
2023-04-20T06:44:50.462Z,100856.11
2023-04-20T06:47:17.368Z,100861.61
2023-04-20T06:49:44.348Z,100869.34
2023-04-20T06:52:11.364Z,100868.64
2023-04-20T06:54:38.198Z,100879.07
2023-04-20T06:57:05.445Z,100885.36
2023-04-20T06:59:32.364Z,100879.83
2023-04-20T07:01:59.453Z,100877.60
2023-04-20T07:04:27.048Z,100874.15
2023-04-20T07:06:54.468Z,100872.90
2023-04-20T07:09:23.222Z,100877.39
2023-04-20T07:11:50.256Z,100878.13
2023-04-20T07:14:17.265Z,100879.61
2023-04-20T07:16:44.381Z,100871.89
2023-04-20T07:19:11.846Z,100870.94
2023-04-20T07:21:38.795Z,100864.62
2023-04-20T07:24:06.188Z,100868.44
2023-04-20T07:26:33.019Z,100866.69
2023-04-20T07:28:59.887Z,100864.26
2023-04-20T07:31:26.814Z,100863.79
2023-04-20T07:33:53.926Z,100858.43
2023-04-20T07:36:23.606Z,100857.86
2023-04-20T07:38:50.531Z,100861.12
2023-04-20T07:41:17.570Z,100859.27
2023-04-20T07:43:45.089Z,100861.34
2023-04-20T07:46:20.586Z,100868.21
2023-04-20T07:48:47.577Z,100869.96
2023-04-20T07:51:14.575Z,100863.40
2023-04-20T07:53:42.582Z,100865.79
2023-04-20T07:56:09.483Z,100870.23
2023-04-20T07:58:38.634Z,100885.80
2023-04-20T08:01:06.232Z,100903.59
2023-04-20T08:03:33.938Z,100925.23
2023-04-20T08:06:01.214Z,100947.77
2023-04-20T08:08:28.250Z,100962.86
2023-04-20T08:10:58.176Z,100962.39
2023-04-20T08:13:25.125Z,100951.00
2023-04-20T08:15:52.086Z,100921.64
2023-04-20T08:18:20.736Z,100905.06
2023-04-20T08:20:48.361Z,100906.71
2023-04-20T08:23:15.271Z,100923.65
2023-04-20T08:25:42.196Z,100935.73
2023-04-20T08:28:15.333Z,100940.86
2023-04-20T08:30:47.082Z,100939.61
2023-04-20T08:33:13.988Z,100932.14
2023-04-20T08:35:41.221Z,100929.44
2023-04-20T08:38:08.154Z,100932.34
2023-04-20T08:40:37.262Z,100933.73
2023-04-20T08:43:04.239Z,100935.64
2023-04-20T08:45:31.354Z,100934.47
2023-04-20T08:47:59.414Z,100934.48
2023-04-20T08:50:26.699Z,100933.80
2023-04-20T08:52:53.555Z,100926.12
2023-04-20T08:55:20.605Z,100917.39
2023-04-20T08:57:50.407Z,100919.19
2023-04-20T09:00:17.745Z,100915.11
2023-04-20T09:02:55.835Z,100912.46
2023-04-20T09:05:30.930Z,100902.56
2023-04-20T09:08:00.049Z,100900.80
2023-04-20T09:10:38.517Z,100897.65
2023-04-20T09:13:06.294Z,100892.83
2023-04-20T09:15:33.317Z,100884.03
2023-04-20T09:18:00.306Z,100869.63
2023-04-20T09:20:32.421Z,100867.09
2023-04-20T09:23:14.774Z,100863.97
2023-04-20T09:25:43.645Z,100854.70
2023-04-20T09:28:11.513Z,100849.92
2023-04-20T09:30:49.439Z,100843.68
2023-04-20T09:33:16.369Z,100844.97
2023-04-20T09:35:44.873Z,100846.46
2023-04-20T09:38:16.045Z,100838.02
2023-04-20T09:40:42.989Z,100833.80
2023-04-20T09:43:19.869Z,100829.19
2023-04-20T09:45:46.945Z,100822.98
2023-04-20T09:48:19.434Z,100814.67
2023-04-20T09:50:50.107Z,100798.79
2023-04-20T09:53:19.778Z,100795.39
2023-04-20T09:55:50.596Z,100794.19
2023-04-20T09:58:21.511Z,100798.63
2023-04-20T10:00:49.342Z,100805.60
2023-04-20T10:03:20.502Z,100816.67
2023-04-20T10:05:48.113Z,100822.19
2023-04-20T10:08:16.216Z,100836.28
2023-04-20T10:10:45.308Z,100840.84
2023-04-20T10:13:12.525Z,100845.45
2023-04-20T10:15:40.969Z,100849.20
2023-04-20T10:18:23.829Z,100844.17
2023-04-20T10:20:52.709Z,100842.74
2023-04-20T10:23:20.201Z,100844.55
2023-04-20T10:26:01.965Z,100846.82
2023-04-20T10:28:40.019Z,100853.02
2023-04-20T10:31:08.831Z,100851.54
2023-04-20T10:33:35.837Z,100851.11
2023-04-20T10:36:02.892Z,100863.98
2023-04-20T10:38:34.882Z,100864.56
2023-04-20T10:41:11.628Z,100865.57
2023-04-20T10:43:44.986Z,100865.52
2023-04-20T10:46:15.690Z,100859.77
2023-04-20T10:49:02.213Z,100856.03
2023-04-20T10:51:29.463Z,100839.09
2023-04-20T10:54:07.957Z,100823.52
2023-04-20T10:56:39.097Z,100811.86
2023-04-20T10:59:07.972Z,100805.60
2023-04-20T11:01:35.058Z,100800.10
2023-04-20T11:04:02.113Z,100791.14
2023-04-20T11:06:29.246Z,100787.11
2023-04-20T11:08:56.423Z,100784.43
2023-04-20T11:11:25.672Z,100778.38
2023-04-20T11:13:52.682Z,100772.98
2023-04-20T11:16:19.903Z,100774.25
2023-04-20T11:18:52.078Z,100773.89
2023-04-20T11:21:20.263Z,100769.23
2023-04-20T11:23:47.503Z,100754.13
2023-04-20T11:26:14.927Z,100732.57
2023-04-20T11:28:56.191Z,100718.31
2023-04-20T11:31:24.056Z,100705.29
2023-04-20T11:33:51.184Z,100694.91
2023-04-20T11:36:23.340Z,100692.59
2023-04-20T11:38:51.281Z,100695.34
2023-04-20T11:41:18.515Z,100695.77
2023-04-20T11:43:46.321Z,100696.55
2023-04-20T11:46:18.796Z,100697.77
2023-04-20T11:48:47.535Z,100693.80
2023-04-20T11:51:15.327Z,100687.65
2023-04-20T11:53:42.889Z,100682.84
2023-04-20T11:56:10.079Z,100677.79
2023-04-20T11:58:37.257Z,100668.64
2023-04-20T12:01:05.666Z,100668.52
2023-04-20T12:03:32.919Z,100671.91
2023-04-20T12:06:00.831Z,100677.37
2023-04-20T12:08:27.828Z,100683.89
2023-04-20T12:10:56.765Z,100682.04
2023-04-20T12:13:26.054Z,100681.98
2023-04-20T12:15:53.014Z,100685.80
2023-04-20T12:18:20.660Z,100679.80
2023-04-20T12:20:47.664Z,100677.54
2023-04-20T12:23:14.556Z,100675.73
2023-04-20T12:25:42.098Z,100672.23
2023-04-20T12:28:09.072Z,100662.10
2023-04-20T12:30:36.181Z,100663.64
2023-04-20T12:33:04.766Z,100654.44
2023-04-20T12:35:31.727Z,100658.02
2023-04-20T12:37:58.693Z,100663.21
2023-04-20T12:40:25.675Z,100660.88
2023-04-20T12:42:52.530Z,100654.64
2023-04-20T12:45:19.592Z,100653.52
2023-04-20T12:47:48.763Z,100650.76
2023-04-20T12:50:15.942Z,100660.03
2023-04-20T12:52:42.880Z,100659.82
2023-04-20T12:55:11.427Z,100661.56
2023-04-20T12:57:38.480Z,100659.81
2023-04-20T13:00:06.842Z,100657.70
2023-04-20T13:02:33.997Z,100647.85
2023-04-20T13:05:00.988Z,100645.63
2023-04-20T13:07:28.129Z,100644.67
2023-04-20T13:09:55.102Z,100641.96
2023-04-20T13:12:21.989Z,100639.63
2023-04-20T13:14:48.946Z,100632.63
2023-04-20T13:17:15.824Z,100629.83
2023-04-20T13:19:42.741Z,100621.93
2023-04-20T13:22:09.681Z,100618.48
2023-04-20T13:24:36.612Z,100613.66
2023-04-20T13:27:04.637Z,100611.92
2023-04-20T13:29:31.680Z,100619.97
2023-04-20T13:31:58.893Z,100621.61
2023-04-20T13:34:25.935Z,100615.13
2023-04-20T13:36:52.797Z,100606.61
2023-04-20T13:39:21.063Z,100601.73
2023-04-20T13:41:51.850Z,100601.79
2023-04-20T13:44:19.092Z,100601.09
2023-04-20T13:46:47.735Z,100600.40
2023-04-20T13:49:18.303Z,100591.45
2023-04-20T13:51:46.638Z,100592.13
2023-04-20T13:54:31.602Z,100595.64
2023-04-20T13:57:01.543Z,100589.01
2023-04-20T13:59:31.950Z,100589.76
2023-04-20T14:02:01.593Z,100583.92
2023-04-20T14:04:32.205Z,100580.73
2023-04-20T14:07:02.265Z,100585.02
2023-04-20T14:09:32.098Z,100582.21
2023-04-20T14:12:02.559Z,100585.34
2023-04-20T14:14:39.089Z,100587.36
2023-04-20T14:17:08.123Z,100594.35
2023-04-20T14:19:41.476Z,100584.43
2023-04-20T14:22:10.002Z,100587.14
2023-04-20T14:24:36.937Z,100590.16
2023-04-20T14:27:03.878Z,100589.73
2023-04-20T14:29:30.878Z,100584.91
2023-04-20T14:31:57.982Z,100584.43
2023-04-20T14:34:25.040Z,100586.29
2023-04-20T14:36:51.940Z,100583.05
2023-04-20T14:39:21.777Z,100580.18
2023-04-20T14:41:48.654Z,100569.39
2023-04-20T14:44:15.820Z,100554.88
2023-04-20T14:46:43.004Z,100549.79
2023-04-20T14:49:10.725Z,100546.03
2023-04-20T14:51:37.637Z,100545.66
2023-04-20T14:54:04.545Z,100547.72
2023-04-20T14:56:31.618Z,100555.35
2023-04-20T14:58:59.749Z,100557.35
2023-04-20T15:01:27.959Z,100556.71
2023-04-20T15:03:55.175Z,100549.57
2023-04-20T15:06:22.455Z,100547.14
2023-04-20T15:08:49.460Z,100544.16
2023-04-20T15:11:16.697Z,100548.23
2023-04-20T15:13:44.939Z,100550.89
2023-04-20T15:16:12.231Z,100553.65
2023-04-20T15:18:39.134Z,100561.04
2023-04-20T15:21:09.048Z,100558.92
2023-04-20T15:23:36.465Z,100563.13
2023-04-20T15:26:03.395Z,100564.35
2023-04-20T15:28:30.455Z,100563.98
2023-04-20T15:30:57.351Z,100557.38
2023-04-20T15:33:24.394Z,100560.14
2023-04-20T15:35:52.874Z,100556.38
2023-04-20T15:38:21.668Z,100556.19
2023-04-20T15:40:48.812Z,100554.33
2023-04-20T15:43:15.861Z,100549.50
2023-04-20T15:45:44.687Z,100551.53
2023-04-20T15:48:13.661Z,100544.81
2023-04-20T15:50:41.038Z,100539.40
2023-04-20T15:53:07.980Z,100530.35
2023-04-20T15:55:38.750Z,100528.12
2023-04-20T15:58:05.660Z,100528.27
2023-04-20T16:00:33.231Z,100527.89
2023-04-20T16:03:01.908Z,100536.62
2023-04-20T16:05:29.107Z,100536.92
2023-04-20T16:07:56.089Z,100538.04
2023-04-20T16:10:23.749Z,100532.25
2023-04-20T16:12:50.706Z,100528.75
2023-04-20T16:15:18.154Z,100524.20
2023-04-20T16:17:48.547Z,100514.27
2023-04-20T16:20:15.699Z,100515.33
2023-04-20T16:22:42.750Z,100511.41
2023-04-20T16:25:12.479Z,100503.48
2023-04-20T16:27:41.761Z,100500.94
2023-04-20T16:30:09.874Z,100499.79
2023-04-20T16:32:36.891Z,100493.16
2023-04-20T16:35:06.355Z,100495.02
2023-04-20T16:37:34.924Z,100489.89
2023-04-20T16:40:02.650Z,100497.08
2023-04-20T16:42:29.558Z,100497.18
2023-04-20T16:44:56.443Z,100499.71
2023-04-20T16:47:23.381Z,100497.96
2023-04-20T16:49:50.287Z,100496.74
2023-04-20T16:52:17.456Z,100491.34
2023-04-20T16:54:44.370Z,100485.88
2023-04-20T16:57:11.316Z,100478.19
2023-04-20T16:59:38.411Z,100469.91
2023-04-20T17:02:05.693Z,100467.00
2023-04-20T17:04:32.861Z,100464.87
2023-04-20T17:06:59.830Z,100457.98
2023-04-20T17:09:27.297Z,100460.30
2023-04-20T17:11:54.164Z,100462.54
2023-04-20T17:14:21.302Z,100461.48
2023-04-20T17:16:48.277Z,100465.60
2023-04-20T17:19:15.230Z,100465.12
2023-04-20T17:21:44.206Z,100463.94
2023-04-20T17:24:11.298Z,100460.92
2023-04-20T17:26:38.177Z,100458.75
2023-04-20T17:29:05.034Z,100462.35
2023-04-20T17:31:33.547Z,100468.71
2023-04-20T17:34:00.844Z,100472.27
2023-04-20T17:36:28.281Z,100480.68
2023-04-20T17:38:55.288Z,100493.14
2023-04-20T17:41:22.431Z,100495.58
2023-04-20T17:43:51.906Z,100495.47
2023-04-20T17:46:18.883Z,100498.44
2023-04-20T17:48:46.031Z,100508.83
2023-04-20T17:51:14.370Z,100507.09
2023-04-20T17:53:41.419Z,100507.68
2023-04-20T17:56:08.374Z,100519.83
2023-04-20T17:58:35.550Z,100523.71
2023-04-20T18:01:03.451Z,100530.30
2023-04-20T18:03:30.798Z,100537.13
2023-04-20T18:05:57.953Z,100540.10
2023-04-20T18:08:25.033Z,100542.13
2023-04-20T18:10:52.079Z,100542.77
2023-04-20T18:13:19.240Z,100547.75
2023-04-20T18:15:46.433Z,100551.57
2023-04-20T18:18:13.634Z,100555.86
2023-04-20T18:20:40.770Z,100556.39
2023-04-20T18:23:08.757Z,100552.00
2023-04-20T18:25:35.834Z,100546.29
2023-04-20T18:28:02.850Z,100541.20
2023-04-20T18:30:29.787Z,100541.01
2023-04-20T18:32:56.767Z,100541.80
2023-04-20T18:35:23.985Z,100542.75
2023-04-20T18:37:52.167Z,100539.58
2023-04-20T18:40:19.616Z,100539.27
2023-04-20T18:42:46.684Z,100538.20
2023-04-20T18:45:13.871Z,100536.88
2023-04-20T18:47:41.117Z,100549.00
2023-04-20T18:50:08.453Z,100558.59
2023-04-20T18:52:35.576Z,100567.42
2023-04-20T18:55:02.671Z,100588.08
2023-04-20T18:57:30.186Z,100585.52
2023-04-20T18:59:57.123Z,100575.52
2023-04-20T19:02:24.370Z,100560.21
2023-04-20T19:04:51.734Z,100552.85
2023-04-20T19:07:19.113Z,100549.10
2023-04-20T19:09:46.132Z,100541.92
2023-04-20T19:12:13.179Z,100546.86
2023-04-20T19:14:40.014Z,100546.48
2023-04-20T19:17:07.555Z,100540.40
2023-04-20T19:19:34.905Z,100538.81
2023-04-20T19:22:03.700Z,100535.89
2023-04-20T19:24:32.326Z,100537.83
2023-04-20T19:26:59.333Z,100535.70
2023-04-20T19:29:26.299Z,100534.20
2023-04-20T19:31:53.286Z,100524.77
2023-04-20T19:34:21.833Z,100526.58
2023-04-20T19:36:49.106Z,100520.38
2023-04-20T19:39:16.026Z,100514.02
2023-04-20T19:41:43.257Z,100512.38
2023-04-20T19:44:12.221Z,100512.16
2023-04-20T19:46:40.854Z,100519.54
2023-04-20T19:49:07.892Z,100536.58
2023-04-20T19:51:34.926Z,100551.00
2023-04-20T19:54:03.622Z,100563.07
2023-04-20T19:56:31.148Z,100567.35
2023-04-20T19:58:58.091Z,100562.21
2023-04-20T20:01:25.032Z,100546.95
2023-04-20T20:03:52.932Z,100541.03
2023-04-20T20:06:21.849Z,100540.93
2023-04-20T20:08:49.098Z,100550.66
2023-04-20T20:11:16.150Z,100560.58
2023-04-20T20:13:44.476Z,100568.52
2023-04-20T20:16:12.481Z,100574.61
2023-04-20T20:18:39.640Z,100579.02
2023-04-20T20:21:06.905Z,100571.75
2023-04-20T20:23:34.035Z,100566.41
2023-04-20T20:26:01.187Z,100559.22
2023-04-20T20:28:28.334Z,100557.36
2023-04-20T20:30:55.513Z,100554.05
2023-04-20T20:33:22.655Z,100554.98
2023-04-20T20:35:49.531Z,100550.75
2023-04-20T20:38:18.024Z,100547.30
2023-04-20T20:40:45.210Z,100548.73
2023-04-20T20:43:13.177Z,100557.38
2023-04-20T20:45:40.335Z,100561.91
2023-04-20T20:48:07.348Z,100559.38
2023-04-20T20:50:34.380Z,100560.70
2023-04-20T20:53:01.220Z,100564.30
2023-04-20T20:55:28.159Z,100572.55
2023-04-20T20:57:55.024Z,100577.69
2023-04-20T21:00:22.010Z,100583.13
2023-04-20T21:02:49.015Z,100583.66
2023-04-20T21:05:16.413Z,100584.81
2023-04-20T21:07:43.757Z,100584.93
2023-04-20T21:10:12.028Z,100587.05
2023-04-20T21:12:39.095Z,100590.50
2023-04-20T21:15:06.852Z,100596.55
2023-04-20T21:17:34.156Z,100603.23
2023-04-20T21:20:01.261Z,100607.36
2023-04-20T21:22:30.052Z,100604.61
2023-04-20T21:24:57.082Z,100597.48
2023-04-20T21:27:24.426Z,100597.38
2023-04-20T21:29:51.381Z,100599.94
2023-04-20T21:32:18.749Z,100598.29
2023-04-20T21:34:46.709Z,100605.56
2023-04-20T21:37:14.077Z,100609.38
2023-04-20T21:39:41.211Z,100615.73
2023-04-20T21:42:08.082Z,100621.20
2023-04-20T21:44:35.005Z,100622.09
2023-04-20T21:47:02.820Z,100628.49
2023-04-20T21:49:31.769Z,100624.68
2023-04-20T21:51:59.207Z,100629.50
2023-04-20T21:54:26.154Z,100625.01
2023-04-20T21:56:53.108Z,100628.09
2023-04-20T21:59:20.291Z,100640.64
2023-04-20T22:01:47.759Z,100635.98
2023-04-20T22:04:16.930Z,100634.77
2023-04-20T22:06:44.102Z,100634.76
2023-04-20T22:09:11.204Z,100640.11
2023-04-20T22:11:38.157Z,100641.54
2023-04-20T22:14:05.092Z,100640.42
2023-04-20T22:16:34.137Z,100638.10
2023-04-20T22:19:01.644Z,100634.03
2023-04-20T22:21:28.695Z,100638.05
2023-04-20T22:23:55.956Z,100643.92
2023-04-20T22:26:22.884Z,100649.02
2023-04-20T22:28:50.654Z,100655.42
2023-04-20T22:31:17.533Z,100660.29
2023-04-20T22:33:44.657Z,100659.83
2023-04-20T22:36:11.694Z,100663.42
2023-04-20T22:38:38.782Z,100657.86
2023-04-20T22:41:05.903Z,100651.82
2023-04-20T22:43:32.831Z,100649.17
2023-04-20T22:45:59.877Z,100646.26
2023-04-20T22:48:26.933Z,100636.10
2023-04-20T22:50:53.877Z,100627.58
2023-04-20T22:53:20.874Z,100625.92
2023-04-20T22:55:47.867Z,100620.44
2023-04-20T22:58:14.920Z,100612.23
2023-04-20T23:00:42.225Z,100606.62
2023-04-20T23:03:09.664Z,100601.92
2023-04-20T23:05:36.858Z,100599.17
2023-04-20T23:08:03.823Z,100605.15
2023-04-20T23:10:30.773Z,100609.02
2023-04-20T23:12:57.817Z,100608.38
2023-04-20T23:15:24.902Z,100608.85
2023-04-20T23:17:53.073Z,100607.37
2023-04-20T23:20:20.286Z,100608.63
2023-04-20T23:22:47.336Z,100604.98
2023-04-20T23:25:14.278Z,100603.45
2023-04-20T23:27:44.936Z,100598.11
2023-04-20T23:30:12.681Z,100600.54
2023-04-20T23:32:40.185Z,100597.41
2023-04-20T23:35:08.660Z,100600.44
2023-04-20T23:37:35.767Z,100598.27
2023-04-20T23:40:07.016Z,100602.65
2023-04-20T23:42:36.279Z,100604.83
2023-04-20T23:45:07.059Z,100599.27
2023-04-20T23:47:34.113Z,100605.71
2023-04-20T23:50:01.154Z,100601.59
2023-04-20T23:52:28.080Z,100602.75
2023-04-20T23:54:54.972Z,100598.45
2023-04-20T23:57:21.969Z,100590.04
2023-04-20T23:59:49.128Z,100581.90
